sensor_id;sensor_type;location;lat;lon;timestamp;P1;durP1;ratioP1;P2;durP2;ratioP2
11328;SDS011;5719;42.714;23.732;2024-01-07T00:01:45;5.43;;;2.35;;
11328;SDS011;5719;42.714;23.732;2024-01-07T00:04:12;3.13;;;2.03;;
11328;SDS011;5719;42.714;23.732;2024-01-07T00:06:40;6.68;;;2.58;;
11328;SDS011;5719;42.714;23.732;2024-01-07T00:09:07;6.68;;;2.72;;
11328;SDS011;5719;42.714;23.732;2024-01-07T00:11:34;8.07;;;2.65;;
11328;SDS011;5719;42.714;23.732;2024-01-07T00:14:00;5.95;;;2.40;;
11328;SDS011;5719;42.714;23.732;2024-01-07T00:16:28;9.00;;;2.47;;
11328;SDS011;5719;42.714;23.732;2024-01-07T00:18:55;5.32;;;2.70;;
11328;SDS011;5719;42.714;23.732;2024-01-07T00:21:22;6.93;;;2.80;;
11328;SDS011;5719;42.714;23.732;2024-01-07T00:23:49;5.07;;;2.50;;
11328;SDS011;5719;42.714;23.732;2024-01-07T00:26:16;6.80;;;2.40;;
11328;SDS011;5719;42.714;23.732;2024-01-07T00:28:43;5.43;;;2.28;;
11328;SDS011;5719;42.714;23.732;2024-01-07T00:31:11;4.18;;;2.33;;
11328;SDS011;5719;42.714;23.732;2024-01-07T00:33:39;7.82;;;2.50;;
11328;SDS011;5719;42.714;23.732;2024-01-07T00:36:06;3.90;;;1.77;;
11328;SDS011;5719;42.714;23.732;2024-01-07T00:38:33;4.35;;;1.50;;
11328;SDS011;5719;42.714;23.732;2024-01-07T00:41:00;4.38;;;1.80;;
11328;SDS011;5719;42.714;23.732;2024-01-07T00:43:27;4.15;;;1.98;;
11328;SDS011;5719;42.714;23.732;2024-01-07T00:45:53;5.50;;;2.03;;
11328;SDS011;5719;42.714;23.732;2024-01-07T00:48:20;5.72;;;1.88;;
11328;SDS011;5719;42.714;23.732;2024-01-07T00:50:48;4.10;;;1.63;;
11328;SDS011;5719;42.714;23.732;2024-01-07T00:53:15;3.78;;;1.40;;
11328;SDS011;5719;42.714;23.732;2024-01-07T00:55:42;6.05;;;1.55;;
11328;SDS011;5719;42.714;23.732;2024-01-07T00:58:09;6.80;;;2.00;;
11328;SDS011;5719;42.714;23.732;2024-01-07T01:00:35;6.78;;;1.80;;
11328;SDS011;5719;42.714;23.732;2024-01-07T01:03:02;8.60;;;1.90;;
11328;SDS011;5719;42.714;23.732;2024-01-07T01:05:29;2.95;;;1.73;;
11328;SDS011;5719;42.714;23.732;2024-01-07T01:07:57;5.93;;;1.88;;
11328;SDS011;5719;42.714;23.732;2024-01-07T01:10:24;6.97;;;1.90;;
11328;SDS011;5719;42.714;23.732;2024-01-07T01:12:51;3.20;;;1.58;;
11328;SDS011;5719;42.714;23.732;2024-01-07T01:15:19;3.92;;;2.08;;
11328;SDS011;5719;42.714;23.732;2024-01-07T01:17:46;7.47;;;2.22;;
11328;SDS011;5719;42.714;23.732;2024-01-07T01:20:13;8.13;;;2.38;;
11328;SDS011;5719;42.714;23.732;2024-01-07T01:22:40;6.95;;;2.20;;
11328;SDS011;5719;42.714;23.732;2024-01-07T01:25:08;6.03;;;1.98;;
11328;SDS011;5719;42.714;23.732;2024-01-07T01:27:35;6.35;;;2.50;;
11328;SDS011;5719;42.714;23.732;2024-01-07T01:30:02;7.97;;;1.98;;
11328;SDS011;5719;42.714;23.732;2024-01-07T01:32:29;6.53;;;1.80;;
11328;SDS011;5719;42.714;23.732;2024-01-07T01:34:56;5.28;;;1.98;;
11328;SDS011;5719;42.714;23.732;2024-01-07T01:37:22;3.30;;;1.80;;
11328;SDS011;5719;42.714;23.732;2024-01-07T01:39:48;4.45;;;1.70;;
11328;SDS011;5719;42.714;23.732;2024-01-07T01:42:17;3.67;;;1.50;;
11328;SDS011;5719;42.714;23.732;2024-01-07T01:44:43;4.93;;;1.67;;
11328;SDS011;5719;42.714;23.732;2024-01-07T01:47:10;8.85;;;1.98;;
11328;SDS011;5719;42.714;23.732;2024-01-07T01:49:37;4.35;;;1.85;;
11328;SDS011;5719;42.714;23.732;2024-01-07T01:52:05;4.97;;;1.88;;
11328;SDS011;5719;42.714;23.732;2024-01-07T01:54:32;2.83;;;1.70;;
11328;SDS011;5719;42.714;23.732;2024-01-07T01:56:59;6.05;;;1.90;;
11328;SDS011;5719;42.714;23.732;2024-01-07T01:59:27;5.45;;;1.67;;
11328;SDS011;5719;42.714;23.732;2024-01-07T02:01:55;6.40;;;1.80;;
11328;SDS011;5719;42.714;23.732;2024-01-07T02:04:22;4.32;;;2.10;;
11328;SDS011;5719;42.714;23.732;2024-01-07T02:06:48;5.28;;;1.90;;
11328;SDS011;5719;42.714;23.732;2024-01-07T02:09:15;5.57;;;2.40;;
11328;SDS011;5719;42.714;23.732;2024-01-07T02:11:42;7.07;;;1.90;;
11328;SDS011;5719;42.714;23.732;2024-01-07T02:14:09;5.38;;;1.92;;
11328;SDS011;5719;42.714;23.732;2024-01-07T02:16:37;4.57;;;1.80;;
11328;SDS011;5719;42.714;23.732;2024-01-07T02:19:04;4.25;;;1.90;;
11328;SDS011;5719;42.714;23.732;2024-01-07T02:21:32;6.38;;;1.98;;
11328;SDS011;5719;42.714;23.732;2024-01-07T02:24:04;5.60;;;2.00;;
11328;SDS011;5719;42.714;23.732;2024-01-07T02:26:31;6.45;;;1.73;;
11328;SDS011;5719;42.714;23.732;2024-01-07T02:28:58;5.45;;;2.05;;
11328;SDS011;5719;42.714;23.732;2024-01-07T02:31:25;9.27;;;1.98;;
11328;SDS011;5719;42.714;23.732;2024-01-07T02:33:51;3.97;;;2.00;;
11328;SDS011;5719;42.714;23.732;2024-01-07T02:36:17;4.35;;;1.70;;
11328;SDS011;5719;42.714;23.732;2024-01-07T02:38:44;2.58;;;1.70;;
11328;SDS011;5719;42.714;23.732;2024-01-07T02:41:12;3.03;;;1.90;;
11328;SDS011;5719;42.714;23.732;2024-01-07T02:43:39;7.18;;;1.70;;
11328;SDS011;5719;42.714;23.732;2024-01-07T02:46:06;3.97;;;2.00;;
11328;SDS011;5719;42.714;23.732;2024-01-07T02:48:33;6.85;;;2.20;;
11328;SDS011;5719;42.714;23.732;2024-01-07T02:51:00;4.70;;;2.08;;
11328;SDS011;5719;42.714;23.732;2024-01-07T02:53:28;7.03;;;2.30;;
11328;SDS011;5719;42.714;23.732;2024-01-07T02:55:55;3.15;;;2.03;;
11328;SDS011;5719;42.714;23.732;2024-01-07T02:58:23;5.20;;;1.85;;
11328;SDS011;5719;42.714;23.732;2024-01-07T03:00:50;4.15;;;2.05;;
11328;SDS011;5719;42.714;23.732;2024-01-07T03:03:17;4.38;;;2.10;;
11328;SDS011;5719;42.714;23.732;2024-01-07T03:05:43;4.63;;;2.60;;
11328;SDS011;5719;42.714;23.732;2024-01-07T03:08:10;7.38;;;2.30;;
11328;SDS011;5719;42.714;23.732;2024-01-07T03:10:37;4.88;;;2.53;;
11328;SDS011;5719;42.714;23.732;2024-01-07T03:13:04;6.78;;;2.35;;
11328;SDS011;5719;42.714;23.732;2024-01-07T03:15:32;5.50;;;1.90;;
11328;SDS011;5719;42.714;23.732;2024-01-07T03:17:59;4.25;;;1.80;;
11328;SDS011;5719;42.714;23.732;2024-01-07T03:20:26;7.65;;;1.92;;
11328;SDS011;5719;42.714;23.732;2024-01-07T03:22:52;4.38;;;1.92;;
11328;SDS011;5719;42.714;23.732;2024-01-07T03:25:20;6.53;;;1.90;;
11328;SDS011;5719;42.714;23.732;2024-01-07T03:27:47;4.22;;;1.63;;
11328;SDS011;5719;42.714;23.732;2024-01-07T03:30:13;8.95;;;1.80;;
11328;SDS011;5719;42.714;23.732;2024-01-07T03:32:42;3.40;;;1.88;;
11328;SDS011;5719;42.714;23.732;2024-01-07T03:35:09;6.15;;;1.88;;
11328;SDS011;5719;42.714;23.732;2024-01-07T03:37:36;8.88;;;2.25;;
11328;SDS011;5719;42.714;23.732;2024-01-07T03:40:03;7.93;;;2.70;;
11328;SDS011;5719;42.714;23.732;2024-01-07T03:42:30;7.05;;;2.55;;
11328;SDS011;5719;42.714;23.732;2024-01-07T03:44:57;6.00;;;2.40;;
11328;SDS011;5719;42.714;23.732;2024-01-07T03:47:23;6.40;;;2.15;;
11328;SDS011;5719;42.714;23.732;2024-01-07T03:49:51;5.88;;;2.65;;
11328;SDS011;5719;42.714;23.732;2024-01-07T03:52:18;6.60;;;2.10;;
11328;SDS011;5719;42.714;23.732;2024-01-07T03:54:45;4.35;;;2.00;;
11328;SDS011;5719;42.714;23.732;2024-01-07T03:57:12;3.67;;;2.10;;
11328;SDS011;5719;42.714;23.732;2024-01-07T03:59:39;6.93;;;2.15;;
11328;SDS011;5719;42.714;23.732;2024-01-07T04:02:05;5.32;;;2.03;;
11328;SDS011;5719;42.714;23.732;2024-01-07T04:04:32;3.17;;;1.95;;
11328;SDS011;5719;42.714;23.732;2024-01-07T04:07:01;3.70;;;1.95;;
11328;SDS011;5719;42.714;23.732;2024-01-07T04:09:27;2.72;;;1.70;;
11328;SDS011;5719;42.714;23.732;2024-01-07T04:11:54;7.95;;;1.90;;
11328;SDS011;5719;42.714;23.732;2024-01-07T04:14:21;3.60;;;2.00;;
11328;SDS011;5719;42.714;23.732;2024-01-07T04:16:48;3.00;;;1.50;;
11328;SDS011;5719;42.714;23.732;2024-01-07T04:19:14;3.75;;;2.00;;
11328;SDS011;5719;42.714;23.732;2024-01-07T04:21:45;4.97;;;2.13;;
11328;SDS011;5719;42.714;23.732;2024-01-07T04:24:13;4.28;;;2.33;;
11328;SDS011;5719;42.714;23.732;2024-01-07T04:26:40;5.28;;;2.10;;
11328;SDS011;5719;42.714;23.732;2024-01-07T04:29:07;4.85;;;2.47;;
11328;SDS011;5719;42.714;23.732;2024-01-07T04:31:34;4.60;;;1.98;;
11328;SDS011;5719;42.714;23.732;2024-01-07T04:34:00;4.85;;;1.83;;
11328;SDS011;5719;42.714;23.732;2024-01-07T04:36:27;4.72;;;2.28;;
11328;SDS011;5719;42.714;23.732;2024-01-07T04:38:55;3.25;;;1.60;;
11328;SDS011;5719;42.714;23.732;2024-01-07T04:41:24;7.47;;;2.08;;
11328;SDS011;5719;42.714;23.732;2024-01-07T04:43:51;6.97;;;2.22;;
11328;SDS011;5719;42.714;23.732;2024-01-07T04:46:17;5.85;;;2.45;;
11328;SDS011;5719;42.714;23.732;2024-01-07T04:48:44;3.05;;;2.38;;
11328;SDS011;5719;42.714;23.732;2024-01-07T04:51:11;8.52;;;3.80;;
11328;SDS011;5719;42.714;23.732;2024-01-07T04:53:38;8.32;;;3.42;;
11328;SDS011;5719;42.714;23.732;2024-01-07T04:56:05;6.93;;;3.30;;
11328;SDS011;5719;42.714;23.732;2024-01-07T04:58:33;3.88;;;3.10;;
11328;SDS011;5719;42.714;23.732;2024-01-07T05:01:00;4.82;;;3.30;;
11328;SDS011;5719;42.714;23.732;2024-01-07T05:03:27;7.60;;;3.80;;
11328;SDS011;5719;42.714;23.732;2024-01-07T05:05:54;4.53;;;2.70;;
11328;SDS011;5719;42.714;23.732;2024-01-07T05:08:21;6.25;;;2.88;;
11328;SDS011;5719;42.714;23.732;2024-01-07T05:10:47;7.30;;;3.28;;
11328;SDS011;5719;42.714;23.732;2024-01-07T05:13:14;4.10;;;2.28;;
11328;SDS011;5719;42.714;23.732;2024-01-07T05:15:42;2.95;;;2.20;;
11328;SDS011;5719;42.714;23.732;2024-01-07T05:18:10;1.67;;;1.58;;
11328;SDS011;5719;42.714;23.732;2024-01-07T05:20:37;2.65;;;1.90;;
11328;SDS011;5719;42.714;23.732;2024-01-07T05:23:04;3.67;;;1.92;;
11328;SDS011;5719;42.714;23.732;2024-01-07T05:25:31;5.03;;;2.42;;
11328;SDS011;5719;42.714;23.732;2024-01-07T05:27:57;6.38;;;3.47;;
11328;SDS011;5719;42.714;23.732;2024-01-07T05:30:24;8.07;;;5.38;;
11328;SDS011;5719;42.714;23.732;2024-01-07T05:32:52;7.90;;;6.22;;
11328;SDS011;5719;42.714;23.732;2024-01-07T05:35:19;15.23;;;6.80;;
11328;SDS011;5719;42.714;23.732;2024-01-07T05:37:46;9.55;;;5.30;;
11328;SDS011;5719;42.714;23.732;2024-01-07T05:40:12;7.55;;;5.10;;
11328;SDS011;5719;42.714;23.732;2024-01-07T05:42:39;9.38;;;6.43;;
11328;SDS011;5719;42.714;23.732;2024-01-07T05:45:06;10.63;;;5.93;;
11328;SDS011;5719;42.714;23.732;2024-01-07T05:47:33;8.68;;;5.75;;
11328;SDS011;5719;42.714;23.732;2024-01-07T05:50:02;8.63;;;5.95;;
11328;SDS011;5719;42.714;23.732;2024-01-07T05:52:29;7.38;;;5.53;;
11328;SDS011;5719;42.714;23.732;2024-01-07T05:54:56;8.73;;;6.00;;
11328;SDS011;5719;42.714;23.732;2024-01-07T05:57:23;6.90;;;5.10;;
11328;SDS011;5719;42.714;23.732;2024-01-07T05:59:49;8.93;;;6.07;;
11328;SDS011;5719;42.714;23.732;2024-01-07T06:02:17;8.68;;;5.10;;
11328;SDS011;5719;42.714;23.732;2024-01-07T06:04:44;10.80;;;5.78;;
11328;SDS011;5719;42.714;23.732;2024-01-07T06:07:12;6.35;;;5.53;;
11328;SDS011;5719;42.714;23.732;2024-01-07T06:09:39;9.15;;;6.00;;
11328;SDS011;5719;42.714;23.732;2024-01-07T06:12:05;9.85;;;5.60;;
11328;SDS011;5719;42.714;23.732;2024-01-07T06:14:32;8.90;;;6.10;;
11328;SDS011;5719;42.714;23.732;2024-01-07T06:16:59;8.63;;;5.95;;
11328;SDS011;5719;42.714;23.732;2024-01-07T06:19:26;10.23;;;6.28;;
11328;SDS011;5719;42.714;23.732;2024-01-07T06:21:53;8.38;;;5.80;;
11328;SDS011;5719;42.714;23.732;2024-01-07T06:24:21;9.40;;;5.82;;
11328;SDS011;5719;42.714;23.732;2024-01-07T06:26:48;13.27;;;7.57;;
11328;SDS011;5719;42.714;23.732;2024-01-07T06:29:14;8.75;;;6.90;;
11328;SDS011;5719;42.714;23.732;2024-01-07T06:31:44;22.35;;;12.15;;
11328;SDS011;5719;42.714;23.732;2024-01-07T06:34:11;21.70;;;12.73;;
11328;SDS011;5719;42.714;23.732;2024-01-07T06:36:39;27.45;;;17.27;;
11328;SDS011;5719;42.714;23.732;2024-01-07T06:39:06;30.40;;;18.50;;
11328;SDS011;5719;42.714;23.732;2024-01-07T06:41:34;27.70;;;18.58;;
11328;SDS011;5719;42.714;23.732;2024-01-07T06:44:01;27.52;;;18.38;;
11328;SDS011;5719;42.714;23.732;2024-01-07T06:46:28;31.95;;;19.27;;
11328;SDS011;5719;42.714;23.732;2024-01-07T06:48:55;28.15;;;18.90;;
11328;SDS011;5719;42.714;23.732;2024-01-07T06:51:22;30.83;;;17.90;;
11328;SDS011;5719;42.714;23.732;2024-01-07T06:53:49;27.73;;;17.00;;
11328;SDS011;5719;42.714;23.732;2024-01-07T06:56:16;26.13;;;16.55;;
11328;SDS011;5719;42.714;23.732;2024-01-07T06:58:44;25.88;;;16.25;;
11328;SDS011;5719;42.714;23.732;2024-01-07T07:01:11;24.50;;;16.98;;
11328;SDS011;5719;42.714;23.732;2024-01-07T07:03:39;24.98;;;16.90;;
11328;SDS011;5719;42.714;23.732;2024-01-07T07:06:06;24.67;;;15.18;;
11328;SDS011;5719;42.714;23.732;2024-01-07T07:08:33;23.95;;;14.05;;
11328;SDS011;5719;42.714;23.732;2024-01-07T07:11:00;16.83;;;12.15;;
11328;SDS011;5719;42.714;23.732;2024-01-07T07:13:27;20.63;;;13.15;;
11328;SDS011;5719;42.714;23.732;2024-01-07T07:15:55;23.00;;;15.55;;
11328;SDS011;5719;42.714;23.732;2024-01-07T07:18:22;25.27;;;16.15;;
11328;SDS011;5719;42.714;23.732;2024-01-07T07:20:49;30.92;;;19.77;;
11328;SDS011;5719;42.714;23.732;2024-01-07T07:23:16;45.30;;;23.85;;
11328;SDS011;5719;42.714;23.732;2024-01-07T07:25:43;41.65;;;23.05;;
11328;SDS011;5719;42.714;23.732;2024-01-07T07:28:10;41.97;;;21.13;;
11328;SDS011;5719;42.714;23.732;2024-01-07T07:30:37;31.73;;;20.00;;
11328;SDS011;5719;42.714;23.732;2024-01-07T07:33:05;27.88;;;18.55;;
11328;SDS011;5719;42.714;23.732;2024-01-07T07:35:32;33.15;;;19.00;;
11328;SDS011;5719;42.714;23.732;2024-01-07T07:37:59;19.88;;;12.45;;
11328;SDS011;5719;42.714;23.732;2024-01-07T07:40:25;12.90;;;8.15;;
11328;SDS011;5719;42.714;23.732;2024-01-07T07:42:52;9.02;;;6.07;;
11328;SDS011;5719;42.714;23.732;2024-01-07T07:45:19;8.43;;;6.03;;
11328;SDS011;5719;42.714;23.732;2024-01-07T07:47:46;6.30;;;5.10;;
11328;SDS011;5719;42.714;23.732;2024-01-07T07:50:14;6.80;;;5.25;;
11328;SDS011;5719;42.714;23.732;2024-01-07T07:52:41;9.45;;;5.57;;
11328;SDS011;5719;42.714;23.732;2024-01-07T07:55:08;7.20;;;5.43;;
11328;SDS011;5719;42.714;23.732;2024-01-07T07:57:35;7.53;;;5.18;;
11328;SDS011;5719;42.714;23.732;2024-01-07T08:00:03;6.30;;;4.60;;
11328;SDS011;5719;42.714;23.732;2024-01-07T08:02:31;6.38;;;4.78;;
11328;SDS011;5719;42.714;23.732;2024-01-07T08:04:58;8.05;;;4.78;;
11328;SDS011;5719;42.714;23.732;2024-01-07T08:07:26;6.88;;;4.40;;
11328;SDS011;5719;42.714;23.732;2024-01-07T08:09:53;9.80;;;5.00;;
11328;SDS011;5719;42.714;23.732;2024-01-07T08:12:22;8.32;;;5.00;;
11328;SDS011;5719;42.714;23.732;2024-01-07T08:14:48;5.93;;;4.38;;
11328;SDS011;5719;42.714;23.732;2024-01-07T08:17:15;6.43;;;4.45;;
11328;SDS011;5719;42.714;23.732;2024-01-07T08:19:43;5.55;;;4.07;;
11328;SDS011;5719;42.714;23.732;2024-01-07T08:22:09;5.75;;;4.40;;
11328;SDS011;5719;42.714;23.732;2024-01-07T08:24:38;5.50;;;4.30;;
11328;SDS011;5719;42.714;23.732;2024-01-07T08:27:06;4.40;;;4.00;;
11328;SDS011;5719;42.714;23.732;2024-01-07T08:29:33;4.57;;;4.18;;
11328;SDS011;5719;42.714;23.732;2024-01-07T08:32:00;4.50;;;3.75;;
11328;SDS011;5719;42.714;23.732;2024-01-07T08:34:27;4.05;;;3.60;;
11328;SDS011;5719;42.714;23.732;2024-01-07T08:36:54;3.30;;;3.00;;
11328;SDS011;5719;42.714;23.732;2024-01-07T08:39:20;3.83;;;2.83;;
11328;SDS011;5719;42.714;23.732;2024-01-07T08:41:49;4.50;;;2.78;;
11328;SDS011;5719;42.714;23.732;2024-01-07T08:44:17;3.35;;;2.28;;
11328;SDS011;5719;42.714;23.732;2024-01-07T08:46:44;5.10;;;2.53;;
11328;SDS011;5719;42.714;23.732;2024-01-07T08:49:11;2.40;;;2.17;;
11328;SDS011;5719;42.714;23.732;2024-01-07T08:51:39;2.50;;;2.30;;
11328;SDS011;5719;42.714;23.732;2024-01-07T08:54:05;4.80;;;2.22;;
11328;SDS011;5719;42.714;23.732;2024-01-07T08:56:32;3.35;;;2.20;;
11328;SDS011;5719;42.714;23.732;2024-01-07T08:59:00;2.08;;;1.70;;
11328;SDS011;5719;42.714;23.732;2024-01-07T09:01:29;2.92;;;1.65;;
11328;SDS011;5719;42.714;23.732;2024-01-07T09:03:56;1.58;;;1.48;;
11328;SDS011;5719;42.714;23.732;2024-01-07T09:06:23;1.88;;;1.52;;
11328;SDS011;5719;42.714;23.732;2024-01-07T09:08:49;1.50;;;1.40;;
11328;SDS011;5719;42.714;23.732;2024-01-07T09:11:18;1.50;;;1.40;;
11328;SDS011;5719;42.714;23.732;2024-01-07T09:13:45;1.55;;;1.30;;
11328;SDS011;5719;42.714;23.732;2024-01-07T09:16:15;2.72;;;1.35;;
11328;SDS011;5719;42.714;23.732;2024-01-07T09:18:42;1.52;;;1.30;;
11328;SDS011;5719;42.714;23.732;2024-01-07T09:21:10;3.10;;;1.25;;
11328;SDS011;5719;42.714;23.732;2024-01-07T09:23:36;2.13;;;1.15;;
11328;SDS011;5719;42.714;23.732;2024-01-07T09:26:03;1.40;;;1.10;;
11328;SDS011;5719;42.714;23.732;2024-01-07T09:28:30;1.45;;;1.27;;
11328;SDS011;5719;42.714;23.732;2024-01-07T09:30:57;1.95;;;1.00;;
11328;SDS011;5719;42.714;23.732;2024-01-07T09:33:25;1.20;;;1.10;;
11328;SDS011;5719;42.714;23.732;2024-01-07T09:35:52;1.25;;;0.90;;
11328;SDS011;5719;42.714;23.732;2024-01-07T09:38:20;0.77;;;0.77;;
11328;SDS011;5719;42.714;23.732;2024-01-07T09:40:47;1.35;;;0.90;;
11328;SDS011;5719;42.714;23.732;2024-01-07T09:43:14;1.63;;;1.05;;
11328;SDS011;5719;42.714;23.732;2024-01-07T09:45:41;0.82;;;0.80;;
11328;SDS011;5719;42.714;23.732;2024-01-07T09:48:10;1.40;;;0.80;;
11328;SDS011;5719;42.714;23.732;2024-01-07T09:50:39;1.15;;;0.60;;
11328;SDS011;5719;42.714;23.732;2024-01-07T09:53:06;2.47;;;0.98;;
11328;SDS011;5719;42.714;23.732;2024-01-07T09:55:35;0.60;;;0.60;;
11328;SDS011;5719;42.714;23.732;2024-01-07T09:58:07;3.17;;;1.00;;
11328;SDS011;5719;42.714;23.732;2024-01-07T10:00:34;1.40;;;0.70;;
11328;SDS011;5719;42.714;23.732;2024-01-07T10:03:02;1.25;;;0.90;;
11328;SDS011;5719;42.714;23.732;2024-01-07T10:05:31;1.55;;;1.10;;
11328;SDS011;5719;42.714;23.732;2024-01-07T10:07:59;1.45;;;0.95;;
11328;SDS011;5719;42.714;23.732;2024-01-07T10:10:27;1.05;;;1.02;;
11328;SDS011;5719;42.714;23.732;2024-01-07T10:12:55;1.30;;;1.00;;
11328;SDS011;5719;42.714;23.732;2024-01-07T10:15:22;2.45;;;1.40;;
11328;SDS011;5719;42.714;23.732;2024-01-07T10:17:49;1.17;;;0.98;;
11328;SDS011;5719;42.714;23.732;2024-01-07T10:20:20;2.10;;;1.38;;
11328;SDS011;5719;42.714;23.732;2024-01-07T10:22:49;1.73;;;1.27;;
11328;SDS011;5719;42.714;23.732;2024-01-07T10:25:18;1.48;;;1.02;;
11328;SDS011;5719;42.714;23.732;2024-01-07T10:27:45;1.67;;;1.05;;
11328;SDS011;5719;42.714;23.732;2024-01-07T10:30:12;1.50;;;1.00;;
11328;SDS011;5719;42.714;23.732;2024-01-07T10:32:41;3.53;;;1.20;;
11328;SDS011;5719;42.714;23.732;2024-01-07T10:35:13;2.40;;;1.17;;
11328;SDS011;5719;42.714;23.732;2024-01-07T10:37:41;1.10;;;1.00;;
11328;SDS011;5719;42.714;23.732;2024-01-07T10:40:08;1.15;;;1.05;;
11328;SDS011;5719;42.714;23.732;2024-01-07T10:42:39;1.00;;;1.00;;
11328;SDS011;5719;42.714;23.732;2024-01-07T10:45:09;1.02;;;1.02;;
11328;SDS011;5719;42.714;23.732;2024-01-07T10:47:37;4.88;;;1.13;;
11328;SDS011;5719;42.714;23.732;2024-01-07T10:50:07;1.45;;;1.25;;
11328;SDS011;5719;42.714;23.732;2024-01-07T10:52:38;1.42;;;1.30;;
11328;SDS011;5719;42.714;23.732;2024-01-07T10:55:08;1.48;;;1.30;;
11328;SDS011;5719;42.714;23.732;2024-01-07T10:57:38;2.15;;;1.50;;
11328;SDS011;5719;42.714;23.732;2024-01-07T11:00:11;1.50;;;1.25;;
11328;SDS011;5719;42.714;23.732;2024-01-07T11:02:46;4.13;;;1.50;;
11328;SDS011;5719;42.714;23.732;2024-01-07T11:05:22;1.75;;;1.48;;
11328;SDS011;5719;42.714;23.732;2024-01-07T11:07:55;1.50;;;1.40;;
11328;SDS011;5719;42.714;23.732;2024-01-07T11:10:29;1.50;;;1.40;;
11328;SDS011;5719;42.714;23.732;2024-01-07T11:13:04;2.72;;;1.40;;
11328;SDS011;5719;42.714;23.732;2024-01-07T11:18:18;3.05;;;1.40;;
11328;SDS011;5719;42.714;23.732;2024-01-07T11:20:45;2.67;;;1.50;;
11328;SDS011;5719;42.714;23.732;2024-01-07T11:23:29;3.47;;;1.40;;
11328;SDS011;5719;42.714;23.732;2024-01-07T11:25:58;2.67;;;1.40;;
11328;SDS011;5719;42.714;23.732;2024-01-07T11:28:46;4.55;;;1.90;;
11328;SDS011;5719;42.714;23.732;2024-01-07T11:31:18;2.10;;;1.52;;
11328;SDS011;5719;42.714;23.732;2024-01-07T11:33:46;5.68;;;1.75;;
11328;SDS011;5719;42.714;23.732;2024-01-07T11:36:14;2.10;;;1.63;;
11328;SDS011;5719;42.714;23.732;2024-01-07T11:38:42;4.15;;;2.13;;
11328;SDS011;5719;42.714;23.732;2024-01-07T11:41:10;2.70;;;1.88;;
11328;SDS011;5719;42.714;23.732;2024-01-07T11:43:53;1.70;;;1.60;;
11328;SDS011;5719;42.714;23.732;2024-01-07T11:46:21;1.90;;;1.50;;
11328;SDS011;5719;42.714;23.732;2024-01-07T11:48:48;2.13;;;1.60;;
11328;SDS011;5719;42.714;23.732;2024-01-07T11:51:15;1.88;;;1.40;;
11328;SDS011;5719;42.714;23.732;2024-01-07T11:53:44;4.93;;;1.60;;
11328;SDS011;5719;42.714;23.732;2024-01-07T11:56:12;2.17;;;1.30;;
11328;SDS011;5719;42.714;23.732;2024-01-07T11:58:40;1.33;;;1.10;;
11328;SDS011;5719;42.714;23.732;2024-01-07T12:01:08;1.90;;;1.63;;
11328;SDS011;5719;42.714;23.732;2024-01-07T12:03:35;7.18;;;2.40;;
11328;SDS011;5719;42.714;23.732;2024-01-07T12:06:02;4.47;;;2.17;;
11328;SDS011;5719;42.714;23.732;2024-01-07T12:08:29;2.35;;;2.05;;
11328;SDS011;5719;42.714;23.732;2024-01-07T12:10:56;6.07;;;2.30;;
11328;SDS011;5719;42.714;23.732;2024-01-07T12:13:24;3.90;;;2.38;;
11328;SDS011;5719;42.714;23.732;2024-01-07T12:15:51;3.28;;;2.20;;
11328;SDS011;5719;42.714;23.732;2024-01-07T12:18:19;3.75;;;2.00;;
11328;SDS011;5719;42.714;23.732;2024-01-07T12:20:54;5.47;;;2.08;;
11328;SDS011;5719;42.714;23.732;2024-01-07T12:23:22;2.00;;;1.83;;
11328;SDS011;5719;42.714;23.732;2024-01-07T12:25:48;5.60;;;2.20;;
11328;SDS011;5719;42.714;23.732;2024-01-07T12:28:16;3.03;;;2.20;;
11328;SDS011;5719;42.714;23.732;2024-01-07T12:30:43;3.95;;;2.20;;
11328;SDS011;5719;42.714;23.732;2024-01-07T12:33:10;3.75;;;2.33;;
11328;SDS011;5719;42.714;23.732;2024-01-07T12:35:38;5.32;;;2.30;;
11328;SDS011;5719;42.714;23.732;2024-01-07T12:38:05;4.80;;;2.08;;
11328;SDS011;5719;42.714;23.732;2024-01-07T12:40:32;4.53;;;2.22;;
11328;SDS011;5719;42.714;23.732;2024-01-07T12:43:00;2.65;;;2.13;;
11328;SDS011;5719;42.714;23.732;2024-01-07T12:45:27;4.70;;;2.05;;
11328;SDS011;5719;42.714;23.732;2024-01-07T12:47:54;3.47;;;2.10;;
11328;SDS011;5719;42.714;23.732;2024-01-07T12:50:24;6.10;;;2.28;;
11328;SDS011;5719;42.714;23.732;2024-01-07T12:52:54;3.97;;;2.10;;
11328;SDS011;5719;42.714;23.732;2024-01-07T12:55:22;5.65;;;2.10;;
11328;SDS011;5719;42.714;23.732;2024-01-07T12:57:49;4.65;;;2.13;;
11328;SDS011;5719;42.714;23.732;2024-01-07T13:00:16;4.68;;;2.13;;
11328;SDS011;5719;42.714;23.732;2024-01-07T13:02:43;3.13;;;1.90;;
11328;SDS011;5719;42.714;23.732;2024-01-07T13:05:10;3.05;;;1.83;;
11328;SDS011;5719;42.714;23.732;2024-01-07T13:07:37;2.65;;;1.75;;
11328;SDS011;5719;42.714;23.732;2024-01-07T13:10:06;2.92;;;2.00;;
11328;SDS011;5719;42.714;23.732;2024-01-07T13:12:34;5.28;;;1.52;;
11328;SDS011;5719;42.714;23.732;2024-01-07T13:15:01;3.85;;;2.22;;
11328;SDS011;5719;42.714;23.732;2024-01-07T13:17:28;2.47;;;2.00;;
11328;SDS011;5719;42.714;23.732;2024-01-07T13:19:58;4.38;;;2.00;;
11328;SDS011;5719;42.714;23.732;2024-01-07T13:22:25;5.00;;;2.03;;
11328;SDS011;5719;42.714;23.732;2024-01-07T13:24:52;4.70;;;1.75;;
11328;SDS011;5719;42.714;23.732;2024-01-07T13:27:21;5.43;;;1.83;;
11328;SDS011;5719;42.714;23.732;2024-01-07T13:29:48;2.20;;;1.90;;
11328;SDS011;5719;42.714;23.732;2024-01-07T13:32:16;3.20;;;1.90;;
11328;SDS011;5719;42.714;23.732;2024-01-07T13:34:43;2.28;;;2.08;;
11328;SDS011;5719;42.714;23.732;2024-01-07T13:37:10;2.42;;;2.22;;
11328;SDS011;5719;42.714;23.732;2024-01-07T13:39:38;2.13;;;1.90;;
11328;SDS011;5719;42.714;23.732;2024-01-07T13:42:05;3.90;;;2.28;;
11328;SDS011;5719;42.714;23.732;2024-01-07T13:44:34;3.47;;;1.70;;
11328;SDS011;5719;42.714;23.732;2024-01-07T13:47:00;1.88;;;1.73;;
11328;SDS011;5719;42.714;23.732;2024-01-07T13:49:27;4.05;;;2.03;;
11328;SDS011;5719;42.714;23.732;2024-01-07T13:51:54;4.38;;;1.80;;
11328;SDS011;5719;42.714;23.732;2024-01-07T13:54:21;4.10;;;1.60;;
11328;SDS011;5719;42.714;23.732;2024-01-07T13:56:48;3.10;;;1.70;;
11328;SDS011;5719;42.714;23.732;2024-01-07T13:59:15;2.78;;;1.60;;
11328;SDS011;5719;42.714;23.732;2024-01-07T14:01:44;3.33;;;1.70;;
11328;SDS011;5719;42.714;23.732;2024-01-07T14:04:11;2.38;;;1.70;;
11328;SDS011;5719;42.714;23.732;2024-01-07T14:06:38;1.90;;;1.52;;
11328;SDS011;5719;42.714;23.732;2024-01-07T14:09:06;2.60;;;1.70;;
11328;SDS011;5719;42.714;23.732;2024-01-07T14:11:34;7.78;;;2.72;;
11328;SDS011;5719;42.714;23.732;2024-01-07T14:14:01;9.57;;;3.65;;
11328;SDS011;5719;42.714;23.732;2024-01-07T14:16:28;9.65;;;3.65;;
11328;SDS011;5719;42.714;23.732;2024-01-07T14:18:56;13.63;;;4.70;;
11328;SDS011;5719;42.714;23.732;2024-01-07T14:21:23;7.50;;;2.83;;
11328;SDS011;5719;42.714;23.732;2024-01-07T14:23:51;4.95;;;2.15;;
11328;SDS011;5719;42.714;23.732;2024-01-07T14:26:18;5.18;;;2.20;;
11328;SDS011;5719;42.714;23.732;2024-01-07T14:28:48;4.43;;;2.10;;
11328;SDS011;5719;42.714;23.732;2024-01-07T14:31:15;3.92;;;2.17;;
11328;SDS011;5719;42.714;23.732;2024-01-07T14:33:42;4.97;;;2.25;;
11328;SDS011;5719;42.714;23.732;2024-01-07T14:36:10;3.67;;;2.42;;
11328;SDS011;5719;42.714;23.732;2024-01-07T14:38:42;3.70;;;2.00;;
11328;SDS011;5719;42.714;23.732;2024-01-07T14:41:09;6.60;;;2.13;;
11328;SDS011;5719;42.714;23.732;2024-01-07T14:43:36;4.10;;;2.00;;
11328;SDS011;5719;42.714;23.732;2024-01-07T14:46:02;5.07;;;2.30;;
11328;SDS011;5719;42.714;23.732;2024-01-07T14:48:29;3.60;;;2.10;;
11328;SDS011;5719;42.714;23.732;2024-01-07T14:50:56;3.83;;;1.60;;